createdAt,value
2022-12-03T00:03:01.979Z,9.03
2022-12-03T00:08:04.041Z,8.60
2022-12-03T00:13:08.822Z,8.46
2022-12-03T00:18:10.902Z,8.56
2022-12-03T00:23:14.107Z,8.68
2022-12-03T00:28:16.068Z,8.76
2022-12-03T00:33:18.151Z,8.83
2022-12-03T00:38:20.128Z,8.85
2022-12-03T00:43:25.445Z,8.86
2022-12-03T00:48:27.575Z,8.86
2022-12-03T00:53:29.766Z,8.80
2022-12-03T00:58:38.705Z,8.72
2022-12-03T01:03:40.676Z,8.66
2022-12-03T01:08:42.694Z,8.59
2022-12-03T01:13:46.016Z,8.52
2022-12-03T01:18:52.364Z,8.48
2022-12-03T01:23:57.455Z,8.43
2022-12-03T01:28:59.334Z,8.36
2022-12-03T01:34:07.117Z,8.32
2022-12-03T01:39:09.012Z,8.30
2022-12-03T01:44:20.040Z,8.29
2022-12-03T01:49:26.289Z,8.26
2022-12-03T01:54:36.477Z,8.25
2022-12-03T01:59:39.421Z,8.24
2022-12-03T02:05:22.698Z,8.20
2022-12-03T02:10:35.125Z,8.17
2022-12-03T02:15:43.192Z,8.13
2022-12-03T02:20:59.253Z,8.10
2022-12-03T02:26:01.151Z,8.07
2022-12-03T02:31:05.296Z,8.06
2022-12-03T02:36:08.006Z,8.03
2022-12-03T02:41:35.701Z,8.01
2022-12-03T02:46:37.805Z,7.97
2022-12-03T02:51:39.936Z,7.91
2022-12-03T02:56:43.053Z,7.88
2022-12-03T03:01:46.127Z,7.85
2022-12-03T03:06:49.253Z,7.81
2022-12-03T03:11:51.627Z,7.77
2022-12-03T03:16:56.331Z,7.71
2022-12-03T03:21:58.537Z,7.71
2022-12-03T03:27:00.507Z,7.68
2022-12-03T03:32:03.822Z,7.67
2022-12-03T03:37:05.897Z,7.68
2022-12-03T03:42:07.903Z,7.66
2022-12-03T03:47:11.396Z,7.65
2022-12-03T03:52:13.463Z,7.63
2022-12-03T03:57:20.659Z,7.64
2022-12-03T04:02:28.664Z,7.63
2022-12-03T04:07:30.692Z,7.64
2022-12-03T04:12:51.523Z,7.64
2022-12-03T04:18:12.239Z,7.64
2022-12-03T04:23:18.979Z,7.64
2022-12-03T04:28:39.842Z,7.64
2022-12-03T04:34:03.273Z,7.64
2022-12-03T04:39:06.021Z,7.68
2022-12-03T04:44:26.819Z,7.72
2022-12-03T04:49:28.788Z,7.73
2022-12-03T04:54:30.811Z,7.71
2022-12-03T04:59:38.418Z,7.70
2022-12-03T05:04:43.619Z,7.71
2022-12-03T05:09:50.359Z,7.69
2022-12-03T05:14:57.350Z,7.68
2022-12-03T05:20:18.714Z,7.62
2022-12-03T05:25:23.565Z,7.56
2022-12-03T05:30:29.609Z,7.50
2022-12-03T05:35:41.292Z,7.44
2022-12-03T05:41:31.169Z,7.33
2022-12-03T05:46:45.691Z,7.22
2022-12-03T05:52:01.864Z,7.12
2022-12-03T06:02:22.474Z,6.95
2022-12-03T06:07:30.302Z,6.92
2022-12-03T06:12:42.744Z,6.91
2022-12-03T06:17:48.956Z,6.94
2022-12-03T06:22:53.359Z,7.02
2022-12-03T06:28:07.072Z,7.06
2022-12-03T06:33:14.271Z,7.07
2022-12-03T06:38:26.896Z,7.08
2022-12-03T06:43:33.560Z,7.11
2022-12-03T06:48:39.541Z,7.16
2022-12-03T06:53:47.551Z,7.17
2022-12-03T07:04:17.660Z,7.20
2022-12-03T07:09:28.580Z,7.21
2022-12-03T07:14:37.440Z,7.20
2022-12-03T07:19:45.660Z,7.23
2022-12-03T07:24:49.112Z,7.29
2022-12-03T07:29:52.929Z,7.34
2022-12-03T07:35:03.033Z,7.36
2022-12-03T07:40:24.550Z,7.41
2022-12-03T07:45:31.359Z,7.45
2022-12-03T07:50:48.306Z,7.48
2022-12-03T07:55:57.955Z,7.56
2022-12-03T08:06:23.167Z,15.45
2022-12-03T08:11:39.275Z,18.44
2022-12-03T08:16:43.844Z,20.20
2022-12-03T08:22:26.704Z,21.05
2022-12-03T08:27:46.695Z,21.37
2022-12-03T08:32:52.055Z,21.19
2022-12-03T08:38:30.272Z,20.77
2022-12-03T08:49:04.410Z,19.51
2022-12-03T08:54:22.368Z,18.95
2022-12-03T08:59:36.187Z,18.48
2022-12-03T09:04:57.565Z,18.15
2022-12-03T09:10:09.679Z,17.88
2022-12-03T09:15:17.282Z,17.55
2022-12-03T09:20:31.124Z,17.24
2022-12-03T09:25:45.994Z,17.01
2022-12-03T09:30:54.223Z,16.91
2022-12-03T09:35:59.122Z,16.76
2022-12-03T09:41:05.580Z,16.63
2022-12-03T09:46:11.194Z,16.60
2022-12-03T09:51:17.230Z,16.54
2022-12-03T09:56:26.137Z,16.45
2022-12-03T10:01:31.311Z,16.47
2022-12-03T10:06:45.791Z,16.46
2022-12-03T10:11:54.138Z,16.44
2022-12-03T10:17:10.380Z,16.46
2022-12-03T10:22:23.572Z,16.56
2022-12-03T10:28:09.048Z,16.73
2022-12-03T10:33:31.267Z,16.87
2022-12-03T10:39:00.320Z,17.09
2022-12-03T10:44:41.929Z,17.25
2022-12-03T10:50:02.019Z,17.33
2022-12-03T10:55:16.439Z,17.46
2022-12-03T11:00:29.287Z,17.60
2022-12-03T11:05:39.609Z,17.68
2022-12-03T11:10:44.360Z,17.63
2022-12-03T11:15:48.059Z,17.64
2022-12-03T11:21:12.933Z,17.68
2022-12-03T11:26:43.546Z,17.80
2022-12-03T11:31:48.709Z,17.96
2022-12-03T11:37:18.040Z,17.95
2022-12-03T11:42:29.927Z,18.10
2022-12-03T11:47:47.345Z,18.23
2022-12-03T11:53:22.171Z,18.37
2022-12-03T11:58:32.155Z,18.50
2022-12-03T12:03:52.070Z,18.58
2022-12-03T12:09:05.033Z,18.61
2022-12-03T12:14:28.738Z,18.60
2022-12-03T12:19:51.046Z,18.47
2022-12-03T12:25:43.536Z,18.35
2022-12-03T12:30:47.965Z,18.36
2022-12-03T12:36:02.362Z,18.29
2022-12-03T12:41:34.908Z,18.27
2022-12-03T12:46:55.483Z,18.08
2022-12-03T12:52:00.466Z,18.09
2022-12-03T12:57:35.309Z,17.99
2022-12-03T13:03:32.966Z,17.99
2022-12-03T13:08:59.402Z,17.63
2022-12-03T13:14:23.324Z,17.26
2022-12-03T13:19:47.582Z,17.18
2022-12-03T13:30:58.665Z,17.30
2022-12-03T13:36:13.135Z,17.22
2022-12-03T13:41:52.345Z,17.08
2022-12-03T13:52:53.191Z,16.94
2022-12-03T13:58:01.578Z,16.76
2022-12-03T14:03:29.458Z,16.36
2022-12-03T14:09:11.568Z,16.33
2022-12-03T14:14:17.001Z,16.29
2022-12-03T14:19:28.859Z,16.26
2022-12-03T14:24:41.696Z,16.18
2022-12-03T14:29:52.435Z,16.05
2022-12-03T14:35:05.137Z,15.89
2022-12-03T14:40:21.761Z,15.83
2022-12-03T14:51:11.417Z,15.48
2022-12-03T14:56:37.462Z,15.53
2022-12-03T15:01:41.992Z,15.45
2022-12-03T15:06:51.883Z,15.39
2022-12-03T15:11:58.403Z,15.12
2022-12-03T15:17:07.305Z,14.86
2022-12-03T15:22:14.424Z,14.71
2022-12-03T15:27:45.002Z,14.52
2022-12-03T15:32:48.925Z,14.44
2022-12-03T15:37:54.327Z,14.37
2022-12-03T15:43:09.627Z,14.25
2022-12-03T15:48:20.378Z,14.15
2022-12-03T15:53:26.231Z,14.03
2022-12-03T15:58:34.142Z,13.94
2022-12-03T16:03:40.245Z,13.88
2022-12-03T16:08:52.054Z,13.85
2022-12-03T16:14:01.792Z,13.79
2022-12-03T16:19:08.505Z,13.76
2022-12-03T16:24:17.477Z,13.71
2022-12-03T16:29:45.997Z,13.70
2022-12-03T16:34:53.248Z,13.67
2022-12-03T16:40:03.846Z,13.63
2022-12-03T16:45:30.369Z,13.61
2022-12-03T16:50:36.210Z,13.58
2022-12-03T16:55:46.036Z,13.56
2022-12-03T17:01:07.296Z,13.52
2022-12-03T17:06:17.562Z,13.49
2022-12-03T17:11:24.842Z,13.46
2022-12-03T17:16:42.599Z,13.44
2022-12-03T17:21:55.316Z,13.41
2022-12-03T17:27:17.912Z,13.38
2022-12-03T17:32:24.361Z,13.37
2022-12-03T17:43:11.026Z,13.32
2022-12-03T17:48:23.808Z,13.31
2022-12-03T17:53:29.404Z,13.29
2022-12-03T17:58:33.231Z,13.30
2022-12-03T18:03:55.113Z,13.25
2022-12-03T18:09:03.853Z,13.19
2022-12-03T18:14:23.168Z,13.12
2022-12-03T18:19:37.022Z,13.08
2022-12-03T18:24:40.195Z,13.05
2022-12-03T18:40:37.438Z,12.92
2022-12-03T18:45:44.136Z,12.90
2022-12-03T18:50:53.252Z,12.86
2022-12-03T18:56:00.367Z,12.82
2022-12-03T19:01:08.804Z,12.79
2022-12-03T19:06:22.666Z,12.74
2022-12-03T19:11:30.776Z,12.72
2022-12-03T19:16:40.489Z,12.72
2022-12-03T19:21:43.082Z,12.71
2022-12-03T19:26:49.310Z,12.68
2022-12-03T19:31:57.635Z,12.67
2022-12-03T19:37:11.791Z,12.64
2022-12-03T19:42:23.369Z,12.60
2022-12-03T19:47:29.531Z,12.53
2022-12-03T19:52:48.535Z,12.45
2022-12-03T19:57:52.521Z,12.37
2022-12-03T20:03:06.694Z,12.28
2022-12-03T20:08:18.215Z,12.23
2022-12-03T20:13:42.424Z,12.20
2022-12-03T20:18:54.068Z,12.16
2022-12-03T20:24:00.462Z,12.07
2022-12-03T20:29:09.510Z,12.03
2022-12-03T20:34:19.005Z,12.00
2022-12-03T20:39:22.815Z,11.97
2022-12-03T20:44:30.226Z,11.75
2022-12-03T20:49:41.526Z,11.17
2022-12-03T20:54:45.723Z,11.15
2022-12-03T20:59:48.813Z,11.37
2022-12-03T21:04:55.854Z,11.59
2022-12-03T21:10:12.147Z,11.72
2022-12-03T21:15:20.041Z,11.78
2022-12-03T21:20:32.175Z,11.71
2022-12-03T21:25:41.634Z,11.62
2022-12-03T21:30:45.172Z,11.49
2022-12-03T21:35:50.578Z,11.42
2022-12-03T21:40:56.026Z,11.35
2022-12-03T21:47:12.462Z,11.33
2022-12-03T21:51:43.619Z,11.26
2022-12-03T21:56:48.472Z,11.26
2022-12-03T22:01:57.820Z,10.95
2022-12-03T22:07:03.618Z,10.43
2022-12-03T22:12:08.456Z,10.23
2022-12-03T22:17:22.738Z,10.06
2022-12-03T22:22:29.910Z,9.98
2022-12-03T22:27:35.736Z,9.90
2022-12-03T22:32:47.915Z,9.85
2022-12-03T22:37:54.673Z,9.83
2022-12-03T22:43:04.074Z,9.86
2022-12-03T22:48:15.163Z,9.84
2022-12-03T22:53:28.989Z,9.72
2022-12-03T22:58:39.774Z,9.66
2022-12-03T23:03:47.171Z,9.70
2022-12-03T23:09:00.164Z,9.63
2022-12-03T23:19:31.636Z,9.92
2022-12-03T23:24:45.797Z,10.03
2022-12-03T23:30:14.520Z,10.10
2022-12-03T23:35:23.681Z,10.15
2022-12-03T23:45:56.727Z,10.22
2022-12-03T23:51:08.275Z,10.07
2022-12-03T23:56:21.672Z,9.88
